sensor_id;sensor_type;location;lat;lon;timestamp;temperature;humidity
17437;DHT22;70275;52.198;5.422;2023-06-14T00:00:39;20.00;48.30
17437;DHT22;70275;52.198;5.422;2023-06-14T00:03:09;19.90;47.90
17437;DHT22;70275;52.198;5.422;2023-06-14T00:05:43;20.00;47.60
17437;DHT22;70275;52.198;5.422;2023-06-14T00:08:13;19.90;47.60
17437;DHT22;70275;52.198;5.422;2023-06-14T00:10:47;19.90;47.80
17437;DHT22;70275;52.198;5.422;2023-06-14T00:13:16;19.80;47.90
17437;DHT22;70275;52.198;5.422;2023-06-14T00:15:45;19.80;48.00
17437;DHT22;70275;52.198;5.422;2023-06-14T00:18:14;19.80;47.80
17437;DHT22;70275;52.198;5.422;2023-06-14T00:20:43;19.80;47.70
17437;DHT22;70275;52.198;5.422;2023-06-14T00:23:13;19.70;47.80
17437;DHT22;70275;52.198;5.422;2023-06-14T00:25:42;19.70;48.00
17437;DHT22;70275;52.198;5.422;2023-06-14T00:28:13;19.80;48.00
17437;DHT22;70275;52.198;5.422;2023-06-14T00:30:42;19.60;48.10
17437;DHT22;70275;52.198;5.422;2023-06-14T00:33:12;19.70;47.80
17437;DHT22;70275;52.198;5.422;2023-06-14T00:35:41;19.70;47.90
17437;DHT22;70275;52.198;5.422;2023-06-14T00:38:10;19.80;47.60
17437;DHT22;70275;52.198;5.422;2023-06-14T00:40:39;19.80;47.80
17437;DHT22;70275;52.198;5.422;2023-06-14T00:43:08;19.80;47.60
17437;DHT22;70275;52.198;5.422;2023-06-14T00:45:39;19.60;47.70
17437;DHT22;70275;52.198;5.422;2023-06-14T00:48:08;19.70;47.50
17437;DHT22;70275;52.198;5.422;2023-06-14T00:50:39;19.70;47.40
17437;DHT22;70275;52.198;5.422;2023-06-14T00:53:11;19.60;47.50
17437;DHT22;70275;52.198;5.422;2023-06-14T00:55:43;19.60;47.70
17437;DHT22;70275;52.198;5.422;2023-06-14T00:58:12;19.50;47.70
17437;DHT22;70275;52.198;5.422;2023-06-14T01:00:45;19.40;47.70
17437;DHT22;70275;52.198;5.422;2023-06-14T01:03:14;19.40;48.00
17437;DHT22;70275;52.198;5.422;2023-06-14T01:05:47;19.40;47.60
17437;DHT22;70275;52.198;5.422;2023-06-14T01:08:23;19.20;48.10
17437;DHT22;70275;52.198;5.422;2023-06-14T01:11:02;19.30;48.20
17437;DHT22;70275;52.198;5.422;2023-06-14T01:13:37;19.30;48.30
17437;DHT22;70275;52.198;5.422;2023-06-14T01:16:12;19.30;48.10
17437;DHT22;70275;52.198;5.422;2023-06-14T01:18:44;19.40;47.90
17437;DHT22;70275;52.198;5.422;2023-06-14T01:21:20;19.40;47.70
17437;DHT22;70275;52.198;5.422;2023-06-14T01:23:53;19.20;48.10
17437;DHT22;70275;52.198;5.422;2023-06-14T01:26:22;19.10;48.30
17437;DHT22;70275;52.198;5.422;2023-06-14T01:28:52;19.00;48.80
17437;DHT22;70275;52.198;5.422;2023-06-14T01:31:24;19.00;48.70
17437;DHT22;70275;52.198;5.422;2023-06-14T01:33:55;18.90;48.70
17437;DHT22;70275;52.198;5.422;2023-06-14T01:36:26;18.90;48.80
17437;DHT22;70275;52.198;5.422;2023-06-14T01:38:59;19.00;48.60
17437;DHT22;70275;52.198;5.422;2023-06-14T01:41:30;19.00;48.70
17437;DHT22;70275;52.198;5.422;2023-06-14T01:44:00;19.00;48.80
17437;DHT22;70275;52.198;5.422;2023-06-14T01:46:30;18.90;48.70
17437;DHT22;70275;52.198;5.422;2023-06-14T01:48:59;18.80;49.30
17437;DHT22;70275;52.198;5.422;2023-06-14T01:51:28;18.90;48.80
17437;DHT22;70275;52.198;5.422;2023-06-14T01:54:00;18.80;48.80
17437;DHT22;70275;52.198;5.422;2023-06-14T01:56:29;18.70;49.30
17437;DHT22;70275;52.198;5.422;2023-06-14T01:58:58;18.60;49.50
17437;DHT22;70275;52.198;5.422;2023-06-14T02:01:27;18.60;49.40
17437;DHT22;70275;52.198;5.422;2023-06-14T02:03:56;18.60;49.40
17437;DHT22;70275;52.198;5.422;2023-06-14T02:06:26;18.50;49.60
17437;DHT22;70275;52.198;5.422;2023-06-14T02:08:55;18.50;49.80
17437;DHT22;70275;52.198;5.422;2023-06-14T02:11:27;18.50;49.90
17437;DHT22;70275;52.198;5.422;2023-06-14T02:13:56;18.40;50.10
17437;DHT22;70275;52.198;5.422;2023-06-14T02:16:25;18.40;50.50
17437;DHT22;70275;52.198;5.422;2023-06-14T02:18:55;18.40;50.50
17437;DHT22;70275;52.198;5.422;2023-06-14T02:21:24;18.30;50.60
17437;DHT22;70275;52.198;5.422;2023-06-14T02:23:53;18.40;50.30
17437;DHT22;70275;52.198;5.422;2023-06-14T02:26:22;18.30;50.40
17437;DHT22;70275;52.198;5.422;2023-06-14T02:28:57;18.20;50.90
17437;DHT22;70275;52.198;5.422;2023-06-14T02:31:26;18.20;50.70
17437;DHT22;70275;52.198;5.422;2023-06-14T02:33:55;18.20;51.00
17437;DHT22;70275;52.198;5.422;2023-06-14T02:36:24;18.10;51.20
17437;DHT22;70275;52.198;5.422;2023-06-14T02:38:55;18.10;51.40
17437;DHT22;70275;52.198;5.422;2023-06-14T02:41:24;18.00;52.00
17437;DHT22;70275;52.198;5.422;2023-06-14T02:43:56;18.00;51.50
17437;DHT22;70275;52.198;5.422;2023-06-14T02:46:25;17.80;52.00
17437;DHT22;70275;52.198;5.422;2023-06-14T02:48:54;17.80;52.20
17437;DHT22;70275;52.198;5.422;2023-06-14T02:51:23;17.80;52.40
17437;DHT22;70275;52.198;5.422;2023-06-14T02:53:52;17.50;53.40
17437;DHT22;70275;52.198;5.422;2023-06-14T02:56:21;17.30;53.80
17437;DHT22;70275;52.198;5.422;2023-06-14T02:58:51;17.30;54.10
17437;DHT22;70275;52.198;5.422;2023-06-14T03:01:25;17.30;54.50
17437;DHT22;70275;52.198;5.422;2023-06-14T03:03:59;17.30;54.50
17437;DHT22;70275;52.198;5.422;2023-06-14T03:06:29;17.10;54.70
17437;DHT22;70275;52.198;5.422;2023-06-14T03:08:59;17.10;55.30
17437;DHT22;70275;52.198;5.422;2023-06-14T03:11:30;17.00;56.00
17437;DHT22;70275;52.198;5.422;2023-06-14T03:14:00;17.00;55.70
17437;DHT22;70275;52.198;5.422;2023-06-14T03:16:32;17.00;55.90
17437;DHT22;70275;52.198;5.422;2023-06-14T03:19:03;16.80;56.50
17437;DHT22;70275;52.198;5.422;2023-06-14T03:21:32;16.80;56.70
17437;DHT22;70275;52.198;5.422;2023-06-14T03:24:00;16.90;56.50
17437;DHT22;70275;52.198;5.422;2023-06-14T03:26:29;16.90;56.00
17437;DHT22;70275;52.198;5.422;2023-06-14T03:29:00;16.80;56.20
17437;DHT22;70275;52.198;5.422;2023-06-14T03:31:31;16.80;56.50
17437;DHT22;70275;52.198;5.422;2023-06-14T03:34:01;16.80;56.50
17437;DHT22;70275;52.198;5.422;2023-06-14T03:36:30;16.80;56.70
17437;DHT22;70275;52.198;5.422;2023-06-14T03:38:59;16.70;56.70
17437;DHT22;70275;52.198;5.422;2023-06-14T03:41:28;16.70;56.40
17437;DHT22;70275;52.198;5.422;2023-06-14T03:43:57;16.70;56.30
17437;DHT22;70275;52.198;5.422;2023-06-14T03:46:26;16.80;56.10
17437;DHT22;70275;52.198;5.422;2023-06-14T03:48:57;16.80;56.40
17437;DHT22;70275;52.198;5.422;2023-06-14T03:51:28;16.80;56.40
17437;DHT22;70275;52.198;5.422;2023-06-14T03:53:57;16.80;56.30
17437;DHT22;70275;52.198;5.422;2023-06-14T03:56:26;16.80;56.60
17437;DHT22;70275;52.198;5.422;2023-06-14T03:58:55;16.80;57.10
17437;DHT22;70275;52.198;5.422;2023-06-14T04:01:24;16.70;57.60
17437;DHT22;70275;52.198;5.422;2023-06-14T04:03:58;16.70;58.00
17437;DHT22;70275;52.198;5.422;2023-06-14T04:06:27;16.40;58.70
17437;DHT22;70275;52.198;5.422;2023-06-14T04:08:59;16.50;58.90
17437;DHT22;70275;52.198;5.422;2023-06-14T04:11:30;16.50;58.80
17437;DHT22;70275;52.198;5.422;2023-06-14T04:13:59;16.40;59.30
17437;DHT22;70275;52.198;5.422;2023-06-14T04:16:29;16.40;58.90
17437;DHT22;70275;52.198;5.422;2023-06-14T04:19:01;16.30;59.60
17437;DHT22;70275;52.198;5.422;2023-06-14T04:21:30;16.40;59.50
17437;DHT22;70275;52.198;5.422;2023-06-14T04:24:00;16.30;60.10
17437;DHT22;70275;52.198;5.422;2023-06-14T04:26:29;16.20;60.40
17437;DHT22;70275;52.198;5.422;2023-06-14T04:28:59;16.10;60.70
17437;DHT22;70275;52.198;5.422;2023-06-14T04:31:29;16.40;59.60
17437;DHT22;70275;52.198;5.422;2023-06-14T04:34:01;16.30;60.30
17437;DHT22;70275;52.198;5.422;2023-06-14T04:36:32;16.40;60.30
17437;DHT22;70275;52.198;5.422;2023-06-14T04:39:03;16.60;59.70
17437;DHT22;70275;52.198;5.422;2023-06-14T04:41:32;16.70;59.30
17437;DHT22;70275;52.198;5.422;2023-06-14T04:44:01;16.60;59.30
17437;DHT22;70275;52.198;5.422;2023-06-14T04:46:31;16.90;58.60
17437;DHT22;70275;52.198;5.422;2023-06-14T04:49:14;16.90;58.00
17437;DHT22;70275;52.198;5.422;2023-06-14T04:51:44;16.90;57.90
17437;DHT22;70275;52.198;5.422;2023-06-14T04:54:16;17.00;57.80
17437;DHT22;70275;52.198;5.422;2023-06-14T04:56:45;17.10;57.70
17437;DHT22;70275;52.198;5.422;2023-06-14T04:59:14;17.30;57.20
17437;DHT22;70275;52.198;5.422;2023-06-14T05:01:43;17.50;56.80
17437;DHT22;70275;52.198;5.422;2023-06-14T05:04:17;17.40;56.20
17437;DHT22;70275;52.198;5.422;2023-06-14T05:06:47;17.70;56.20
17437;DHT22;70275;52.198;5.422;2023-06-14T05:09:16;18.00;55.80
17437;DHT22;70275;52.198;5.422;2023-06-14T05:11:45;18.10;54.60
17437;DHT22;70275;52.198;5.422;2023-06-14T05:14:17;18.40;54.00
17437;DHT22;70275;52.198;5.422;2023-06-14T05:16:48;18.60;53.20
17437;DHT22;70275;52.198;5.422;2023-06-14T05:19:19;18.80;53.10
17437;DHT22;70275;52.198;5.422;2023-06-14T05:21:49;18.60;53.30
17437;DHT22;70275;52.198;5.422;2023-06-14T05:24:18;18.60;52.80
17437;DHT22;70275;52.198;5.422;2023-06-14T05:26:48;18.60;53.50
17437;DHT22;70275;52.198;5.422;2023-06-14T05:29:17;18.70;53.10
17437;DHT22;70275;52.198;5.422;2023-06-14T05:31:46;18.60;53.10
17437;DHT22;70275;52.198;5.422;2023-06-14T05:34:15;19.00;52.00
17437;DHT22;70275;52.198;5.422;2023-06-14T05:36:47;19.20;52.30
17437;DHT22;70275;52.198;5.422;2023-06-14T05:39:16;19.20;51.80
17437;DHT22;70275;52.198;5.422;2023-06-14T05:41:45;19.40;51.10
17437;DHT22;70275;52.198;5.422;2023-06-14T05:44:14;20.30;49.90
17437;DHT22;70275;52.198;5.422;2023-06-14T05:46:45;22.00;44.60
17437;DHT22;70275;52.198;5.422;2023-06-14T05:49:14;22.90;43.10
17437;DHT22;70275;52.198;5.422;2023-06-14T05:51:43;22.90;42.90
17437;DHT22;70275;52.198;5.422;2023-06-14T05:54:16;23.30;42.20
17437;DHT22;70275;52.198;5.422;2023-06-14T05:56:45;23.00;41.40
17437;DHT22;70275;52.198;5.422;2023-06-14T05:59:14;23.20;42.00
17437;DHT22;70275;52.198;5.422;2023-06-14T06:01:43;23.40;41.00
17437;DHT22;70275;52.198;5.422;2023-06-14T06:04:12;23.60;40.60
17437;DHT22;70275;52.198;5.422;2023-06-14T06:06:41;23.30;41.10
17437;DHT22;70275;52.198;5.422;2023-06-14T06:09:13;22.70;42.80
17437;DHT22;70275;52.198;5.422;2023-06-14T06:11:42;23.30;41.60
17437;DHT22;70275;52.198;5.422;2023-06-14T06:14:12;23.10;41.80
17437;DHT22;70275;52.198;5.422;2023-06-14T06:16:41;22.60;42.90
17437;DHT22;70275;52.198;5.422;2023-06-14T06:19:11;23.30;41.70
17437;DHT22;70275;52.198;5.422;2023-06-14T06:21:40;23.30;41.00
17437;DHT22;70275;52.198;5.422;2023-06-14T06:24:09;22.80;42.20
17437;DHT22;70275;52.198;5.422;2023-06-14T06:26:41;23.00;41.30
17437;DHT22;70275;52.198;5.422;2023-06-14T06:29:10;23.30;40.70
17437;DHT22;70275;52.198;5.422;2023-06-14T06:31:40;23.00;40.70
17437;DHT22;70275;52.198;5.422;2023-06-14T06:34:08;22.90;41.10
17437;DHT22;70275;52.198;5.422;2023-06-14T06:36:37;23.10;41.50
17437;DHT22;70275;52.198;5.422;2023-06-14T06:39:07;23.60;40.90
17437;DHT22;70275;52.198;5.422;2023-06-14T06:41:40;23.90;39.60
17437;DHT22;70275;52.198;5.422;2023-06-14T06:44:09;23.90;39.80
17437;DHT22;70275;52.198;5.422;2023-06-14T06:46:39;23.90;40.10
17437;DHT22;70275;52.198;5.422;2023-06-14T06:49:08;23.60;40.60
17437;DHT22;70275;52.198;5.422;2023-06-14T06:51:40;23.40;40.80
17437;DHT22;70275;52.198;5.422;2023-06-14T06:54:11;23.40;40.80
17437;DHT22;70275;52.198;5.422;2023-06-14T06:56:42;23.90;39.90
17437;DHT22;70275;52.198;5.422;2023-06-14T06:59:12;23.60;39.70
17437;DHT22;70275;52.198;5.422;2023-06-14T07:01:42;23.10;40.60
17437;DHT22;70275;52.198;5.422;2023-06-14T07:04:12;23.40;40.00
17437;DHT22;70275;52.198;5.422;2023-06-14T07:06:42;23.80;41.30
17437;DHT22;70275;52.198;5.422;2023-06-14T07:09:12;24.00;39.60
17437;DHT22;70275;52.198;5.422;2023-06-14T07:11:44;24.20;39.30
17437;DHT22;70275;52.198;5.422;2023-06-14T07:14:14;24.10;39.50
17437;DHT22;70275;52.198;5.422;2023-06-14T07:16:43;23.70;39.80
17437;DHT22;70275;52.198;5.422;2023-06-14T07:19:12;23.80;40.10
17437;DHT22;70275;52.198;5.422;2023-06-14T07:21:41;24.00;39.00
17437;DHT22;70275;52.198;5.422;2023-06-14T07:24:10;24.20;39.60
17437;DHT22;70275;52.198;5.422;2023-06-14T07:26:39;24.20;38.90
17437;DHT22;70275;52.198;5.422;2023-06-14T07:29:11;24.10;39.00
17437;DHT22;70275;52.198;5.422;2023-06-14T07:31:40;24.10;38.80
17437;DHT22;70275;52.198;5.422;2023-06-14T07:34:09;24.40;38.30
17437;DHT22;70275;52.198;5.422;2023-06-14T07:36:38;24.40;36.90
17437;DHT22;70275;52.198;5.422;2023-06-14T07:39:10;24.30;37.30
17437;DHT22;70275;52.198;5.422;2023-06-14T07:41:39;24.70;37.60
17437;DHT22;70275;52.198;5.422;2023-06-14T07:44:11;24.90;37.50
17437;DHT22;70275;52.198;5.422;2023-06-14T07:46:41;24.70;37.30
17437;DHT22;70275;52.198;5.422;2023-06-14T07:49:12;24.30;37.60
17437;DHT22;70275;52.198;5.422;2023-06-14T07:51:42;24.70;36.50
17437;DHT22;70275;52.198;5.422;2023-06-14T07:54:12;24.40;37.60
17437;DHT22;70275;52.198;5.422;2023-06-14T07:56:42;24.20;37.30
17437;DHT22;70275;52.198;5.422;2023-06-14T07:59:14;24.00;36.40
17437;DHT22;70275;52.198;5.422;2023-06-14T08:01:43;23.90;37.90
17437;DHT22;70275;52.198;5.422;2023-06-14T08:04:13;23.80;36.60
17437;DHT22;70275;52.198;5.422;2023-06-14T08:06:43;23.60;37.30
17437;DHT22;70275;52.198;5.422;2023-06-14T08:09:13;23.70;37.50
17437;DHT22;70275;52.198;5.422;2023-06-14T08:11:42;23.60;37.40
17437;DHT22;70275;52.198;5.422;2023-06-14T08:14:14;23.80;37.30
17437;DHT22;70275;52.198;5.422;2023-06-14T08:16:43;24.00;36.80
17437;DHT22;70275;52.198;5.422;2023-06-14T08:19:12;24.20;37.10
17437;DHT22;70275;52.198;5.422;2023-06-14T08:21:42;24.40;36.10
17437;DHT22;70275;52.198;5.422;2023-06-14T08:24:11;24.70;35.80
17437;DHT22;70275;52.198;5.422;2023-06-14T08:26:41;24.40;35.10
17437;DHT22;70275;52.198;5.422;2023-06-14T08:29:10;24.50;35.30
17437;DHT22;70275;52.198;5.422;2023-06-14T08:31:42;24.30;35.00
17437;DHT22;70275;52.198;5.422;2023-06-14T08:34:11;24.40;35.20
17437;DHT22;70275;52.198;5.422;2023-06-14T08:36:40;24.40;35.10
17437;DHT22;70275;52.198;5.422;2023-06-14T08:41:46;24.70;35.00
17437;DHT22;70275;52.198;5.422;2023-06-14T08:44:17;24.70;34.80
17437;DHT22;70275;52.198;5.422;2023-06-14T08:46:48;24.70;34.70
17437;DHT22;70275;52.198;5.422;2023-06-14T08:49:20;24.60;35.20
17437;DHT22;70275;52.198;5.422;2023-06-14T08:51:51;24.80;34.30
17437;DHT22;70275;52.198;5.422;2023-06-14T08:54:25;24.80;34.10
17437;DHT22;70275;52.198;5.422;2023-06-14T08:56:56;24.80;34.10
17437;DHT22;70275;52.198;5.422;2023-06-14T08:59:26;25.00;34.10
17437;DHT22;70275;52.198;5.422;2023-06-14T09:01:59;24.80;34.00
17437;DHT22;70275;52.198;5.422;2023-06-14T09:04:28;25.30;33.20
17437;DHT22;70275;52.198;5.422;2023-06-14T09:06:58;25.40;33.10
17437;DHT22;70275;52.198;5.422;2023-06-14T09:09:26;25.30;33.20
17437;DHT22;70275;52.198;5.422;2023-06-14T09:11:55;25.30;33.50
17437;DHT22;70275;52.198;5.422;2023-06-14T09:14:24;25.70;33.70
17437;DHT22;70275;52.198;5.422;2023-06-14T09:16:54;25.70;32.80
17437;DHT22;70275;52.198;5.422;2023-06-14T09:19:26;25.40;33.50
17437;DHT22;70275;52.198;5.422;2023-06-14T09:21:55;25.70;33.60
17437;DHT22;70275;52.198;5.422;2023-06-14T09:24:24;25.70;32.50
17437;DHT22;70275;52.198;5.422;2023-06-14T09:26:56;25.80;33.20
17437;DHT22;70275;52.198;5.422;2023-06-14T09:29:26;25.50;33.60
17437;DHT22;70275;52.198;5.422;2023-06-14T09:31:56;25.50;32.50
17437;DHT22;70275;52.198;5.422;2023-06-14T09:34:27;25.70;32.50
17437;DHT22;70275;52.198;5.422;2023-06-14T09:36:56;25.60;31.80
17437;DHT22;70275;52.198;5.422;2023-06-14T09:39:25;25.70;31.60
17437;DHT22;70275;52.198;5.422;2023-06-14T09:41:54;25.70;32.50
17437;DHT22;70275;52.198;5.422;2023-06-14T09:44:25;26.00;32.30
17437;DHT22;70275;52.198;5.422;2023-06-14T09:46:56;26.20;33.00
17437;DHT22;70275;52.198;5.422;2023-06-14T09:49:28;26.00;32.10
17437;DHT22;70275;52.198;5.422;2023-06-14T09:51:59;25.90;31.70
17437;DHT22;70275;52.198;5.422;2023-06-14T09:54:29;26.10;31.70
17437;DHT22;70275;52.198;5.422;2023-06-14T09:56:59;25.90;32.00
17437;DHT22;70275;52.198;5.422;2023-06-14T09:59:32;26.10;32.20
17437;DHT22;70275;52.198;5.422;2023-06-14T10:02:09;26.20;32.30
17437;DHT22;70275;52.198;5.422;2023-06-14T10:04:49;26.20;32.30
17437;DHT22;70275;52.198;5.422;2023-06-14T10:07:26;26.10;32.60
17437;DHT22;70275;52.198;5.422;2023-06-14T10:09:58;25.70;32.30
17437;DHT22;70275;52.198;5.422;2023-06-14T10:12:28;26.30;31.70
17437;DHT22;70275;52.198;5.422;2023-06-14T10:14:59;26.30;31.90
17437;DHT22;70275;52.198;5.422;2023-06-14T10:17:35;26.40;30.30
17437;DHT22;70275;52.198;5.422;2023-06-14T10:20:27;26.50;31.10
17437;DHT22;70275;52.198;5.422;2023-06-14T10:23:05;26.60;30.80
17437;DHT22;70275;52.198;5.422;2023-06-14T10:25:38;26.70;31.40
17437;DHT22;70275;52.198;5.422;2023-06-14T10:28:17;26.60;31.30
17437;DHT22;70275;52.198;5.422;2023-06-14T10:31:05;26.60;30.60
17437;DHT22;70275;52.198;5.422;2023-06-14T10:33:36;26.60;30.80
17437;DHT22;70275;52.198;5.422;2023-06-14T10:36:26;26.60;30.80
17437;DHT22;70275;52.198;5.422;2023-06-14T10:39:06;26.50;30.90
17437;DHT22;70275;52.198;5.422;2023-06-14T10:41:37;26.90;30.90
17437;DHT22;70275;52.198;5.422;2023-06-14T10:44:32;26.50;31.20
17437;DHT22;70275;52.198;5.422;2023-06-14T10:47:10;26.90;30.40
17437;DHT22;70275;52.198;5.422;2023-06-14T10:49:52;27.00;30.80
17437;DHT22;70275;52.198;5.422;2023-06-14T10:52:26;27.10;31.20
17437;DHT22;70275;52.198;5.422;2023-06-14T10:55:08;27.00;30.50
17437;DHT22;70275;52.198;5.422;2023-06-14T10:57:42;26.20;31.00
17437;DHT22;70275;52.198;5.422;2023-06-14T11:00:13;25.70;32.30
17437;DHT22;70275;52.198;5.422;2023-06-14T11:06:12;26.70;31.40
17437;DHT22;70275;52.198;5.422;2023-06-14T11:09:16;26.90;30.00
17437;DHT22;70275;52.198;5.422;2023-06-14T11:11:58;27.10;31.00
17437;DHT22;70275;52.198;5.422;2023-06-14T11:14:30;28.30;29.50
17437;DHT22;70275;52.198;5.422;2023-06-14T11:16:59;29.10;29.00
17437;DHT22;70275;52.198;5.422;2023-06-14T11:19:29;29.40;27.40
17437;DHT22;70275;52.198;5.422;2023-06-14T11:21:57;28.90;27.70
17437;DHT22;70275;52.198;5.422;2023-06-14T11:24:32;30.00;27.10
17437;DHT22;70275;52.198;5.422;2023-06-14T11:27:02;30.90;26.10
17437;DHT22;70275;52.198;5.422;2023-06-14T11:29:32;31.10;25.50
17437;DHT22;70275;52.198;5.422;2023-06-14T11:32:01;30.10;25.80
17437;DHT22;70275;52.198;5.422;2023-06-14T11:34:30;30.00;26.20
17437;DHT22;70275;52.198;5.422;2023-06-14T11:36:59;29.90;26.50
17437;DHT22;70275;52.198;5.422;2023-06-14T11:39:30;30.60;25.90
17437;DHT22;70275;52.198;5.422;2023-06-14T11:42:01;30.80;25.60
17437;DHT22;70275;52.198;5.422;2023-06-14T11:44:31;31.20;24.90
17437;DHT22;70275;52.198;5.422;2023-06-14T11:47:03;30.50;25.70
17437;DHT22;70275;52.198;5.422;2023-06-14T11:49:35;29.80;26.60
17437;DHT22;70275;52.198;5.422;2023-06-14T11:52:05;30.70;26.00
17437;DHT22;70275;52.198;5.422;2023-06-14T11:54:37;30.10;26.20
17437;DHT22;70275;52.198;5.422;2023-06-14T11:57:07;30.80;25.10
17437;DHT22;70275;52.198;5.422;2023-06-14T11:59:38;30.90;25.40
17437;DHT22;70275;52.198;5.422;2023-06-14T12:02:10;30.50;26.20
17437;DHT22;70275;52.198;5.422;2023-06-14T12:04:43;30.40;25.90
17437;DHT22;70275;52.198;5.422;2023-06-14T12:07:13;30.50;25.70
17437;DHT22;70275;52.198;5.422;2023-06-14T12:10:09;31.30;25.30
17437;DHT22;70275;52.198;5.422;2023-06-14T12:12:39;29.20;27.70
17437;DHT22;70275;52.198;5.422;2023-06-14T12:15:09;31.10;25.70
17437;DHT22;70275;52.198;5.422;2023-06-14T12:17:39;31.10;25.20
17437;DHT22;70275;52.198;5.422;2023-06-14T12:20:12;30.90;25.70
17437;DHT22;70275;52.198;5.422;2023-06-14T12:22:51;30.80;26.30
17437;DHT22;70275;52.198;5.422;2023-06-14T12:25:30;31.00;25.60
17437;DHT22;70275;52.198;5.422;2023-06-14T12:28:04;31.40;25.90
17437;DHT22;70275;52.198;5.422;2023-06-14T12:30:36;32.10;25.00
17437;DHT22;70275;52.198;5.422;2023-06-14T12:33:06;31.40;25.40
17437;DHT22;70275;52.198;5.422;2023-06-14T12:35:35;32.40;25.30
17437;DHT22;70275;52.198;5.422;2023-06-14T12:38:04;30.10;26.70
17437;DHT22;70275;52.198;5.422;2023-06-14T12:40:35;29.90;26.90
17437;DHT22;70275;52.198;5.422;2023-06-14T12:43:05;30.30;26.20
17437;DHT22;70275;52.198;5.422;2023-06-14T12:45:34;30.60;25.60
17437;DHT22;70275;52.198;5.422;2023-06-14T12:48:03;31.10;25.10
17437;DHT22;70275;52.198;5.422;2023-06-14T12:50:34;31.30;25.50
17437;DHT22;70275;52.198;5.422;2023-06-14T12:53:03;32.10;25.00
17437;DHT22;70275;52.198;5.422;2023-06-14T12:55:35;31.90;24.50
17437;DHT22;70275;52.198;5.422;2023-06-14T12:58:03;31.70;24.60
17437;DHT22;70275;52.198;5.422;2023-06-14T13:00:32;31.60;24.30
17437;DHT22;70275;52.198;5.422;2023-06-14T13:03:02;31.60;24.70
17437;DHT22;70275;52.198;5.422;2023-06-14T13:05:31;31.40;25.10
17437;DHT22;70275;52.198;5.422;2023-06-14T13:08:00;31.70;23.60
17437;DHT22;70275;52.198;5.422;2023-06-14T13:10:28;31.50;23.20
17437;DHT22;70275;52.198;5.422;2023-06-14T13:13:00;31.80;23.10
17437;DHT22;70275;52.198;5.422;2023-06-14T13:15:29;31.70;23.40
17437;DHT22;70275;52.198;5.422;2023-06-14T13:17:58;32.00;24.00
17437;DHT22;70275;52.198;5.422;2023-06-14T13:20:28;31.50;24.40
17437;DHT22;70275;52.198;5.422;2023-06-14T13:22:57;31.60;24.40
17437;DHT22;70275;52.198;5.422;2023-06-14T13:25:29;31.60;23.80
17437;DHT22;70275;52.198;5.422;2023-06-14T13:28:01;32.20;22.90
17437;DHT22;70275;52.198;5.422;2023-06-14T13:30:31;32.00;23.40
17437;DHT22;70275;52.198;5.422;2023-06-14T13:33:01;32.60;23.30
17437;DHT22;70275;52.198;5.422;2023-06-14T13:35:30;32.30;23.50
17437;DHT22;70275;52.198;5.422;2023-06-14T13:37:59;32.60;23.50
17437;DHT22;70275;52.198;5.422;2023-06-14T13:40:28;32.00;24.70
17437;DHT22;70275;52.198;5.422;2023-06-14T13:42:56;32.10;23.70
17437;DHT22;70275;52.198;5.422;2023-06-14T13:45:28;31.80;24.60
17437;DHT22;70275;52.198;5.422;2023-06-14T13:47:57;31.90;24.10
17437;DHT22;70275;52.198;5.422;2023-06-14T13:50:26;31.20;24.50
17437;DHT22;70275;52.198;5.422;2023-06-14T13:52:56;31.60;24.30
17437;DHT22;70275;52.198;5.422;2023-06-14T13:55:25;31.50;24.50
17437;DHT22;70275;52.198;5.422;2023-06-14T13:57:54;31.40;25.00
17437;DHT22;70275;52.198;5.422;2023-06-14T14:00:23;30.80;25.70
17437;DHT22;70275;52.198;5.422;2023-06-14T14:02:55;30.90;25.70
17437;DHT22;70275;52.198;5.422;2023-06-14T14:05:25;31.40;25.00
17437;DHT22;70275;52.198;5.422;2023-06-14T14:07:55;32.00;24.70
17437;DHT22;70275;52.198;5.422;2023-06-14T14:10:25;32.00;24.30
17437;DHT22;70275;52.198;5.422;2023-06-14T14:12:54;32.50;24.20
17437;DHT22;70275;52.198;5.422;2023-06-14T14:15:23;32.40;23.40
17437;DHT22;70275;52.198;5.422;2023-06-14T14:17:55;32.00;24.40
17437;DHT22;70275;52.198;5.422;2023-06-14T14:20:24;32.10;24.90
17437;DHT22;70275;52.198;5.422;2023-06-14T14:22:53;32.40;24.70
17437;DHT22;70275;52.198;5.422;2023-06-14T14:25:22;32.70;24.20
17437;DHT22;70275;52.198;5.422;2023-06-14T14:27:51;32.00;24.60
17437;DHT22;70275;52.198;5.422;2023-06-14T14:30:20;31.90;25.20
17437;DHT22;70275;52.198;5.422;2023-06-14T14:32:49;32.40;24.20
17437;DHT22;70275;52.198;5.422;2023-06-14T14:35:21;31.90;24.60
17437;DHT22;70275;52.198;5.422;2023-06-14T14:37:52;32.30;24.20
17437;DHT22;70275;52.198;5.422;2023-06-14T14:40:21;31.10;25.30
17437;DHT22;70275;52.198;5.422;2023-06-14T14:42:50;31.60;24.80
17437;DHT22;70275;52.198;5.422;2023-06-14T14:45:19;32.80;24.30
17437;DHT22;70275;52.198;5.422;2023-06-14T14:47:48;32.40;24.30
17437;DHT22;70275;52.198;5.422;2023-06-14T14:50:17;33.10;24.00
17437;DHT22;70275;52.198;5.422;2023-06-14T14:52:48;33.30;24.00
17437;DHT22;70275;52.198;5.422;2023-06-14T14:55:17;33.90;23.30
17437;DHT22;70275;52.198;5.422;2023-06-14T14:57:46;33.50;23.60
17437;DHT22;70275;52.198;5.422;2023-06-14T15:00:16;34.00;23.30
17437;DHT22;70275;52.198;5.422;2023-06-14T15:02:46;33.20;23.30
17437;DHT22;70275;52.198;5.422;2023-06-14T15:05:15;33.80;23.90
17437;DHT22;70275;52.198;5.422;2023-06-14T15:07:44;33.20;23.60
17437;DHT22;70275;52.198;5.422;2023-06-14T15:10:15;33.30;23.80
17437;DHT22;70275;52.198;5.422;2023-06-14T15:12:45;33.80;22.90
17437;DHT22;70275;52.198;5.422;2023-06-14T15:15:14;33.40;22.70
17437;DHT22;70275;52.198;5.422;2023-06-14T15:17:42;31.60;24.50
17437;DHT22;70275;52.198;5.422;2023-06-14T15:20:12;32.90;23.10
17437;DHT22;70275;52.198;5.422;2023-06-14T15:22:41;32.90;23.30
17437;DHT22;70275;52.198;5.422;2023-06-14T15:25:10;30.60;24.40
17437;DHT22;70275;52.198;5.422;2023-06-14T15:27:42;30.20;25.60
17437;DHT22;70275;52.198;5.422;2023-06-14T15:30:12;31.20;24.50
17437;DHT22;70275;52.198;5.422;2023-06-14T15:32:41;32.00;23.90
17437;DHT22;70275;52.198;5.422;2023-06-14T15:35:10;32.70;24.40
17437;DHT22;70275;52.198;5.422;2023-06-14T15:37:40;33.50;23.10
17437;DHT22;70275;52.198;5.422;2023-06-14T15:40:10;31.90;24.30
17437;DHT22;70275;52.198;5.422;2023-06-14T15:42:42;32.20;24.20
17437;DHT22;70275;52.198;5.422;2023-06-14T15:45:11;31.90;24.90
17437;DHT22;70275;52.198;5.422;2023-06-14T15:47:41;31.90;24.70
17437;DHT22;70275;52.198;5.422;2023-06-14T15:50:10;32.90;24.50
17437;DHT22;70275;52.198;5.422;2023-06-14T15:52:39;31.80;24.10
17437;DHT22;70275;52.198;5.422;2023-06-14T15:55:08;33.20;23.80
17437;DHT22;70275;52.198;5.422;2023-06-14T15:57:37;32.60;23.20